Time;durP1;ratioP1;P1;durP2;ratioP2;P2;SDS_P1;SDS_P2;PMS_P1;PMS_P2;Temp;Humidity;BMP_temperature;BMP_pressure;BME280_temperature;BME280_humidity;BME280_pressure;Samples;Min_cycle;Max_cycle;Signal;HPM_P1;HPM_P2
2022/01/07 00:01:22;;;;;;;52.37;6.90;;;;;;;2.01;100.00;98348.44;5123413;28;20612;-64
2022/01/07 00:03:49;;;;;;;76.30;8.53;;;;;;;2.15;100.00;98336.94;5122197;28;21595;-65
2022/01/07 00:06:16;;;;;;;64.23;8.90;;;;;;;2.46;100.00;98337.19;5124811;28;20611;-64
2022/01/07 00:08:43;;;;;;;81.77;9.07;;;;;;;2.31;100.00;98335.75;5121778;28;20643;-64
2022/01/07 00:11:10;;;;;;;53.90;7.70;;;;;;;1.62;100.00;98328.03;5126379;28;20641;-64
2022/01/07 00:13:38;;;;;;;67.53;8.53;;;;;;;1.95;100.00;98330.81;5124296;28;20612;-66
2022/01/07 00:16:05;;;;;;;45.30;7.80;;;;;;;2.83;100.00;98330.53;5124859;28;20625;-64
2022/01/07 00:18:32;;;;;;;44.23;6.67;;;;;;;2.91;100.00;98329.53;5129950;28;20619;-65
2022/01/07 00:20:59;;;;;;;64.50;8.20;;;;;;;2.30;100.00;98328.84;5130231;28;20625;-64
2022/01/07 00:23:25;;;;;;;40.87;7.50;;;;;;;1.99;100.00;98319.66;5125547;27;20622;-65
2022/01/07 00:25:53;;;;;;;45.73;7.10;;;;;;;2.27;100.00;98314.25;5130056;28;20604;-66
2022/01/07 00:28:19;;;;;;;39.23;6.07;;;;;;;2.81;100.00;98319.38;5128642;28;20599;-65
2022/01/07 00:30:48;;;;;;;56.10;8.13;;;;;;;3.12;100.00;98316.09;5129972;28;20619;-65
2022/01/07 00:33:15;;;;;;;47.67;7.03;;;;;;;2.17;100.00;98314.63;5129782;28;20604;-65
2022/01/07 00:35:41;;;;;;;102.30;9.73;;;;;;;2.62;100.00;98310.44;5129814;28;21167;-65
2022/01/07 00:38:11;;;;;;;82.87;8.10;;;;;;;1.93;100.00;98299.38;5129704;28;20624;-64
2022/01/07 00:40:37;;;;;;;78.00;8.03;;;;;;;1.91;100.00;98297.97;5129567;28;20603;-64
2022/01/07 00:43:04;;;;;;;60.10;8.57;;;;;;;1.77;100.00;98293.66;5129734;28;20611;-64
2022/01/07 00:45:31;;;;;;;94.33;9.27;;;;;;;2.17;100.00;98296.19;5129670;28;20630;-64
2022/01/07 00:47:59;;;;;;;77.40;8.77;;;;;;;2.51;100.00;98297.03;5129543;28;20624;-65
2022/01/07 00:50:29;;;;;;;58.03;7.30;;;;;;;2.02;100.00;98298.19;5129401;28;20651;-64
2022/01/07 00:52:56;;;;;;;70.73;9.57;;;;;;;1.72;100.00;98286.34;5128573;28;20605;-65
2022/01/07 00:55:23;;;;;;;60.90;8.50;;;;;;;2.10;100.00;98295.34;5126705;28;20609;-64
2022/01/07 00:57:50;;;;;;;101.60;10.30;;;;;;;2.80;100.00;98296.66;5129666;28;20616;-65
2022/01/07 01:00:22;;;;;;;86.33;8.93;;;;;;;2.44;100.00;98290.97;5129475;28;20604;-64
2022/01/07 01:02:49;;;;;;;78.13;9.80;;;;;;;2.63;100.00;98293.59;5113512;28;20591;-64
2022/01/07 01:05:19;;;;;;;43.30;6.47;;;;;;;2.17;100.00;98283.00;5129468;28;20630;-64
2022/01/07 01:07:45;;;;;;;67.10;8.90;;;;;;;2.00;100.00;98289.69;5113010;28;20612;-65
2022/01/07 01:10:14;;;;;;;66.33;8.87;;;;;;;2.11;100.00;98280.38;5129274;28;20647;-65
2022/01/07 01:12:44;;;;;;;81.80;9.50;;;;;;;1.49;100.00;98280.59;5129386;28;20612;-65
2022/01/07 01:15:13;;;;;;;71.67;9.03;;;;;;;1.81;100.00;98279.91;5129448;28;20584;-64
2022/01/07 01:17:40;;;;;;;79.07;9.17;;;;;;;1.88;100.00;98267.56;5129341;28;20611;-64
2022/01/07 01:20:10;;;;;;;87.77;10.53;;;;;;;1.90;100.00;98265.53;5129281;28;20611;-65
2022/01/07 01:22:38;;;;;;;64.63;8.30;;;;;;;1.65;100.00;98253.91;5130745;28;20703;-64
2022/01/07 01:25:06;;;;;;;67.97;8.73;;;;;;;1.15;100.00;98262.19;5123986;28;20596;-65
2022/01/07 01:27:34;;;;;;;62.47;8.37;;;;;;;1.16;100.00;98255.94;5129196;28;20596;-64
2022/01/07 01:30:02;;;;;;;66.27;7.53;;;;;;;1.34;100.00;98256.22;5129225;28;20626;-65
2022/01/07 01:32:29;;;;;;;68.40;8.07;;;;;;;1.56;100.00;98255.09;5128937;28;20615;-65
2022/01/07 01:34:55;;;;;;;64.03;9.13;;;;;;;1.34;100.00;98261.50;5130583;28;21377;-65
2022/01/07 01:37:22;;;;;;;74.70;9.10;;;;;;;1.31;100.00;98261.88;5133042;28;20652;-65
2022/01/07 01:39:50;;;;;;;86.47;9.70;;;;;;;2.17;100.00;98263.75;5133205;28;20607;-65
2022/01/07 01:42:16;;;;;;;99.43;11.00;;;;;;;2.27;100.00;98272.09;5133022;28;21034;-64
2022/01/07 01:44:43;;;;;;;86.53;10.17;;;;;;;2.85;100.00;98273.09;5124484;28;20596;-64
2022/01/07 01:47:10;;;;;;;53.10;9.27;;;;;;;3.19;100.00;98264.91;5132831;28;20618;-64
2022/01/07 01:49:36;;;;;;;45.87;8.03;;;;;;;3.04;100.00;98259.06;5132671;28;20647;-65
2022/01/07 01:52:03;;;;;;;69.47;9.23;;;;;;;3.20;100.00;98263.91;5132894;28;20695;-65
2022/01/07 01:54:30;;;;;;;65.33;9.90;;;;;;;3.39;100.00;98266.69;5128318;27;20599;-65
2022/01/07 01:56:58;;;;;;;81.67;9.50;;;;;;;3.35;100.00;98266.28;5132898;28;20629;-65
2022/01/07 01:59:26;;;;;;;57.43;8.00;;;;;;;3.21;100.00;98268.16;5132555;28;20622;-64
2022/01/07 02:01:53;;;;;;;42.33;8.03;;;;;;;3.57;100.00;98269.47;5132664;28;20592;-64
2022/01/07 02:04:20;;;;;;;57.80;9.30;;;;;;;2.99;100.00;98277.34;5132406;28;20610;-64
2022/01/07 02:06:47;;;;;;;100.37;10.80;;;;;;;2.61;100.00;98265.81;5132420;28;20595;-64
2022/01/07 02:09:13;;;;;;;42.63;7.37;;;;;;;2.51;100.00;98263.59;5132527;28;20646;-64
2022/01/07 02:11:40;;;;;;;65.07;8.77;;;;;;;3.22;100.00;98274.22;5132445;28;20596;-65
2022/01/07 02:14:08;;;;;;;59.50;10.17;;;;;;;2.57;100.00;98268.03;5132293;28;20699;-66
2022/01/07 02:16:35;;;;;;;50.00;7.83;;;;;;;2.12;100.00;98259.09;5132257;28;20607;-64
2022/01/07 02:19:01;;;;;;;44.87;7.37;;;;;;;1.86;100.00;98266.94;5132304;28;20672;-64
2022/01/07 02:21:29;;;;;;;54.33;7.27;;;;;;;1.84;100.00;98258.44;5132053;28;20607;-64
2022/01/07 02:23:56;;;;;;;75.17;9.90;;;;;;;1.67;100.00;98245.84;5128061;27;20595;-64
2022/01/07 02:26:23;;;;;;;55.07;8.60;;;;;;;1.39;100.00;98257.25;5132023;28;20633;-64
2022/01/07 02:28:50;;;;;;;84.30;10.53;;;;;;;1.34;100.00;98246.53;5132089;28;20626;-64
2022/01/07 02:31:17;;;;;;;68.93;10.27;;;;;;;1.18;100.00;98240.78;5131872;28;20666;-65
2022/01/07 02:33:44;;;;;;;54.30;7.60;;;;;;;1.12;100.00;98231.84;5123880;28;20655;-64
2022/01/07 02:36:12;;;;;;;52.60;7.10;;;;;;;1.87;100.00;98238.78;5131959;28;20629;-64
2022/01/07 02:38:40;;;;;;;118.37;11.57;;;;;;;2.09;100.00;98241.06;5131716;28;20600;-65
2022/01/07 02:41:07;;;;;;;60.20;8.80;;;;;;;2.38;100.00;98244.34;5131948;28;20622;-64
2022/01/07 02:43:34;;;;;;;42.60;7.07;;;;;;;2.88;100.00;98234.97;5131728;28;20611;-64
2022/01/07 02:46:00;;;;;;;74.27;8.67;;;;;;;3.12;100.00;98244.84;5131576;28;20596;-65
2022/01/07 02:48:27;;;;;;;63.83;8.60;;;;;;;3.02;100.00;98250.56;5131543;28;20614;-65
2022/01/07 02:50:55;;;;;;;112.47;11.13;;;;;;;2.87;100.00;98233.34;5131590;28;20654;-65
2022/01/07 02:53:21;;;;;;;54.30;8.87;;;;;;;2.51;100.00;98239.03;5127236;27;20607;-64
2022/01/07 02:55:50;;;;;;;69.97;8.87;;;;;;;2.15;100.00;98242.09;5131351;28;20635;-65
2022/01/07 02:58:17;;;;;;;62.67;8.40;;;;;;;1.74;100.00;98247.47;5131554;28;20608;-65
2022/01/07 03:00:44;;;;;;;93.40;10.40;;;;;;;1.44;100.00;98251.41;5123129;28;20699;-64
2022/01/07 03:03:11;;;;;;;61.47;7.47;;;;;;;1.58;100.00;98248.63;5131510;28;20602;-65
2022/01/07 03:05:41;;;;;;;75.77;8.97;;;;;;;2.28;100.00;98254.47;5131180;28;20667;-64
2022/01/07 03:08:08;;;;;;;49.83;7.33;;;;;;;2.65;100.00;98245.94;5131579;28;20612;-65
2022/01/07 03:10:35;;;;;;;93.30;10.60;;;;;;;2.72;100.00;98247.53;5131067;28;20639;-65
2022/01/07 03:13:05;;;;;;;60.63;7.90;;;;;;;2.52;100.00;98241.50;5131161;28;20608;-65
2022/01/07 03:15:34;;;;;;;83.93;9.70;;;;;;;2.29;100.00;98235.78;5131078;28;20604;-65
2022/01/07 03:18:01;;;;;;;94.17;11.27;;;;;;;2.13;100.00;98239.66;5131216;28;20608;-65
2022/01/07 03:20:28;;;;;;;82.93;9.93;;;;;;;1.96;100.00;98230.50;5130917;28;21139;-65
2022/01/07 03:22:54;;;;;;;71.97;9.77;;;;;;;2.05;100.00;98218.75;5130236;27;20627;-65
2022/01/07 03:25:21;;;;;;;46.93;7.10;;;;;;;1.79;100.00;98224.00;5127755;28;20619;-64
2022/01/07 03:27:48;;;;;;;69.13;10.07;;;;;;;1.65;100.00;98219.69;5130879;28;20616;-66
2022/01/07 03:30:19;;;;;;;44.30;8.87;;;;;;;2.04;100.00;98232.16;5130664;28;20718;-64
2022/01/07 03:32:46;;;;;;;112.00;12.90;;;;;;;2.56;100.00;98237.44;5114244;28;20607;-64
2022/01/07 03:35:14;;;;;;;53.03;9.70;;;;;;;2.39;100.00;98238.84;5130875;28;20615;-65
2022/01/07 03:37:42;;;;;;;74.03;9.47;;;;;;;2.37;100.00;98234.78;5130745;28;20657;-65
2022/01/07 03:40:11;;;;;;;39.77;8.97;;;;;;;2.26;100.00;98238.06;5130767;28;20604;-65
2022/01/07 03:42:38;;;;;;;112.07;12.37;;;;;;;2.15;100.00;98237.63;5130511;28;20584;-65
2022/01/07 03:45:05;;;;;;;55.70;10.03;;;;;;;1.71;100.00;98226.81;5130568;28;20691;-64
2022/01/07 03:47:33;;;;;;;42.47;7.13;;;;;;;1.45;100.00;98222.28;5130249;28;20592;-65
2022/01/07 03:50:00;;;;;;;67.27;8.97;;;;;;;1.69;100.00;98234.09;5130372;28;20689;-65
2022/01/07 03:52:27;;;;;;;65.87;10.17;;;;;;;1.86;100.00;98232.72;5132384;27;20599;-65
2022/01/07 03:54:53;;;;;;;58.37;9.27;;;;;;;1.88;100.00;98220.16;5124088;28;20599;-65
2022/01/07 03:57:20;;;;;;;87.33;11.50;;;;;;;1.49;100.00;98225.31;5129785;28;20629;-64
2022/01/07 03:59:47;;;;;;;59.90;10.00;;;;;;;1.59;100.00;98217.84;5130441;28;20607;-64
2022/01/07 04:02:13;;;;;;;77.27;11.03;;;;;;;1.59;100.00;98223.13;5130199;28;20621;-64
2022/01/07 04:04:41;;;;;;;95.13;10.87;;;;;;;1.55;100.00;98214.00;5130122;28;21043;-64
2022/01/07 04:07:08;;;;;;;93.37;10.83;;;;;;;1.29;100.00;98211.28;5130084;28;20592;-65
2022/01/07 04:09:34;;;;;;;33.97;8.50;;;;;;;1.48;100.00;98198.22;5130016;28;20599;-64
2022/01/07 04:12:01;;;;;;;38.83;9.73;;;;;;;1.53;100.00;98192.34;5130186;28;20672;-65
2022/01/07 04:14:28;;;;;;;81.63;11.97;;;;;;;1.63;100.00;98193.59;5118072;28;20646;-64
2022/01/07 04:16:55;;;;;;;89.30;11.97;;;;;;;1.21;100.00;98198.31;5121507;28;20607;-64
2022/01/07 04:19:22;;;;;;;65.87;11.03;;;;;;;0.76;100.00;98197.88;5124488;28;20637;-64
2022/01/07 04:21:50;;;;;;;76.07;10.63;;;;;;;0.56;100.00;98199.56;5122686;28;20600;-65
2022/01/07 04:24:18;;;;;;;52.30;9.43;;;;;;;0.66;100.00;98194.78;5125759;27;20588;-65
2022/01/07 04:26:45;;;;;;;102.90;13.30;;;;;;;0.84;100.00;98205.59;5121600;28;20611;-66
2022/01/07 04:29:12;;;;;;;68.27;9.27;;;;;;;0.49;100.00;98191.66;5129851;28;20607;-64
2022/01/07 04:31:38;;;;;;;98.47;15.50;;;;;;;0.61;100.00;98199.81;5129574;28;20659;-64
2022/01/07 04:34:05;;;;;;;83.87;12.10;;;;;;;0.66;100.00;98196.59;5128717;28;20608;-63
2022/01/07 04:36:32;;;;;;;70.03;12.07;;;;;;;0.61;100.00;98197.19;5129723;28;20610;-64
2022/01/07 04:39:00;;;;;;;61.80;13.10;;;;;;;0.56;100.00;98191.69;5129714;28;20660;-64
2022/01/07 04:41:27;;;;;;;80.60;14.67;;;;;;;0.59;100.00;98196.56;5129415;28;20607;-64
2022/01/07 04:43:53;;;;;;;93.60;15.30;;;;;;;0.77;100.00;98196.88;5129586;28;20629;-64
2022/01/07 04:46:20;;;;;;;75.60;14.53;;;;;;;1.06;100.00;98188.72;5129297;28;21461;-64
2022/01/07 04:48:46;;;;;;;78.77;13.63;;;;;;;1.40;100.00;98194.91;5129496;28;20648;-64
2022/01/07 04:51:13;;;;;;;68.40;11.63;;;;;;;1.87;100.00;98196.66;5129536;28;20647;-65
2022/01/07 04:53:40;;;;;;;100.53;13.97;;;;;;;2.04;100.00;98201.31;5125385;28;21477;-64
2022/01/07 04:56:08;;;;;;;78.90;12.73;;;;;;;2.26;100.00;98198.53;5129607;28;20615;-64
2022/01/07 04:58:34;;;;;;;69.83;11.33;;;;;;;2.11;100.00;98204.78;5129377;28;20588;-64
2022/01/07 05:01:01;;;;;;;63.47;11.40;;;;;;;2.08;100.00;98192.00;5129548;28;20611;-64
2022/01/07 05:03:27;;;;;;;48.33;9.80;;;;;;;1.55;100.00;98191.13;5129309;28;20669;-64
2022/01/07 05:06:04;;;;;;;73.20;10.63;;;;;;;1.28;100.00;98194.69;5129421;28;20591;-64
2022/01/07 05:08:31;;;;;;;50.63;9.37;;;;;;;1.03;100.00;98199.63;5129261;28;20614;-64
2022/01/07 05:10:57;;;;;;;62.30;9.90;;;;;;;0.99;100.00;98201.03;5132375;28;20631;-64
2022/01/07 05:13:25;;;;;;;86.70;11.40;;;;;;;0.97;100.00;98207.50;5133261;28;20592;-64
2022/01/07 05:15:52;;;;;;;50.20;10.13;;;;;;;0.86;100.00;98194.91;5133547;28;20600;-64
2022/01/07 05:18:19;;;;;;;78.27;11.43;;;;;;;0.92;100.00;98194.94;5133369;28;21138;-65
2022/01/07 05:20:47;;;;;;;89.27;12.63;;;;;;;1.09;100.00;98196.22;5133391;28;20625;-64
2022/01/07 05:23:13;;;;;;;69.70;11.20;;;;;;;0.94;100.00;98197.38;5130008;27;20616;-64
2022/01/07 05:25:40;;;;;;;83.97;10.70;;;;;;;0.71;100.00;98208.19;5133095;28;20591;-64
2022/01/07 05:28:06;;;;;;;62.33;10.87;;;;;;;1.01;100.00;98204.28;5133444;28;20615;-64
2022/01/07 05:30:35;;;;;;;43.00;10.40;;;;;;;1.07;100.00;98214.03;5133078;28;20643;-65
2022/01/07 05:33:01;;;;;;;41.60;9.57;;;;;;;1.25;100.00;98200.34;5133550;28;20599;-65
2022/01/07 05:35:29;;;;;;;47.20;9.90;;;;;;;1.80;100.00;98207.16;5133269;28;20660;-65
2022/01/07 05:37:56;;;;;;;42.93;8.23;;;;;;;1.56;100.00;98198.00;5133481;28;20691;-64
2022/01/07 05:40:22;;;;;;;51.67;10.37;;;;;;;1.93;100.00;98209.03;5133213;28;21170;-65
2022/01/07 05:42:49;;;;;;;74.63;9.60;;;;;;;2.01;100.00;98207.00;5133274;28;20607;-64
2022/01/07 05:45:16;;;;;;;50.77;9.63;;;;;;;2.17;100.00;98206.59;5133269;28;20612;-65
2022/01/07 05:47:43;;;;;;;57.43;10.07;;;;;;;2.07;100.00;98194.88;5133101;28;20641;-64
2022/01/07 05:50:10;;;;;;;14.43;6.30;;;;;;;2.28;100.00;98194.66;5133104;28;20630;-64
2022/01/07 05:52:37;;;;;;;57.50;9.40;;;;;;;1.65;100.00;98193.38;5134521;27;20610;-64
2022/01/07 05:55:05;;;;;;;58.57;9.47;;;;;;;1.63;100.00;98179.63;5127629;28;20607;-65
2022/01/07 05:57:32;;;;;;;32.80;8.47;;;;;;;1.25;100.00;98196.91;5132981;28;20603;-66
2022/01/07 06:00:00;;;;;;;83.20;10.53;;;;;;;1.28;100.00;98193.88;5133121;28;21385;-65
2022/01/07 06:02:26;;;;;;;32.50;7.40;;;;;;;0.98;100.00;98198.59;5133041;28;20595;-65
2022/01/07 06:04:54;;;;;;;53.17;10.70;;;;;;;0.89;100.00;98197.97;5133017;28;20603;-64
2022/01/07 06:07:21;;;;;;;59.40;10.70;;;;;;;0.95;100.00;98185.84;5132747;28;20595;-64
2022/01/07 06:09:48;;;;;;;40.73;8.33;;;;;;;1.08;100.00;98183.28;5132977;28;20629;-65
2022/01/07 06:12:14;;;;;;;70.57;10.87;;;;;;;1.12;100.00;98186.31;5132757;28;20635;-64
2022/01/07 06:14:41;;;;;;;95.80;12.83;;;;;;;1.85;100.00;98188.16;5132865;28;20621;-65
2022/01/07 06:17:08;;;;;;;89.80;12.10;;;;;;;1.99;100.00;98174.78;5132713;28;20614;-65
2022/01/07 06:19:35;;;;;;;41.77;8.43;;;;;;;2.57;100.00;98167.03;5132394;28;20600;-64
2022/01/07 06:22:04;;;;;;;64.63;10.80;;;;;;;2.11;100.00;98173.16;5132152;28;20588;-65
2022/01/07 06:24:31;;;;;;;45.70;8.67;;;;;;;2.41;100.00;98178.03;5124107;28;20606;-64
2022/01/07 06:26:58;;;;;;;26.83;7.97;;;;;;;2.43;100.00;98173.34;5132519;28;20600;-65
2022/01/07 06:29:25;;;;;;;57.30;10.67;;;;;;;2.66;100.00;98169.25;5122577;28;20612;-64
2022/01/07 06:31:51;;;;;;;43.77;9.53;;;;;;;2.38;100.00;98165.28;5132183;28;20663;-64
2022/01/07 06:34:20;;;;;;;67.20;10.13;;;;;;;2.52;100.00;98161.59;5132378;28;20660;-65
2022/01/07 06:36:47;;;;;;;65.33;10.20;;;;;;;2.09;100.00;98169.94;5132418;28;20603;-64
2022/01/07 06:39:15;;;;;;;50.93;10.63;;;;;;;2.08;100.00;98176.22;5132191;28;20599;-64
2022/01/07 06:41:41;;;;;;;62.70;11.87;;;;;;;1.86;100.00;98173.97;5132163;28;20603;-66
2022/01/07 06:44:08;;;;;;;59.40;9.33;;;;;;;2.16;100.00;98183.94;5132145;28;20618;-65
2022/01/07 06:46:34;;;;;;;47.03;9.57;;;;;;;1.64;100.00;98183.84;5131830;28;20591;-65
2022/01/07 06:49:01;;;;;;;52.50;9.87;;;;;;;1.78;100.00;98180.25;5130879;28;20623;-65
2022/01/07 06:51:27;;;;;;;30.33;8.60;;;;;;;2.22;100.00;98186.75;5131570;28;20647;-65
2022/01/07 06:53:54;;;;;;;33.40;9.80;;;;;;;2.73;100.00;98190.34;5127891;27;20580;-65
2022/01/07 06:56:22;;;;;;;107.70;14.03;;;;;;;2.79;100.00;98184.25;5131616;28;20607;-65
2022/01/07 06:58:49;;;;;;;83.03;10.97;;;;;;;2.64;100.00;98178.41;5131891;28;20596;-65
2022/01/07 07:01:15;;;;;;;36.07;8.33;;;;;;;1.88;100.00;98185.94;5131770;28;20633;-64
2022/01/07 07:03:42;;;;;;;59.77;11.17;;;;;;;1.55;100.00;98177.16;5131630;28;20605;-65
2022/01/07 07:06:09;;;;;;;80.10;13.17;;;;;;;1.71;100.00;98174.16;5131831;28;20637;-65
2022/01/07 07:08:36;;;;;;;65.97;12.07;;;;;;;2.19;100.00;98187.97;5130599;28;20619;-65
2022/01/07 07:11:02;;;;;;;46.77;11.00;;;;;;;2.13;100.00;98189.59;5131591;28;20632;-66
2022/01/07 07:13:30;;;;;;;78.57;13.07;;;;;;;1.78;100.00;98189.97;5131272;28;20645;-65
2022/01/07 07:15:57;;;;;;;63.43;11.80;;;;;;;1.79;100.00;98195.03;5131833;28;20630;-66
2022/01/07 07:18:23;;;;;;;61.63;12.37;;;;;;;2.21;100.00;98208.84;5131121;28;20592;-65
2022/01/07 07:20:50;;;;;;;56.67;12.70;;;;;;;2.63;100.00;98198.66;5131217;28;20641;-65
2022/01/07 07:23:16;;;;;;;107.33;13.57;;;;;;;2.87;100.00;98194.59;5127441;27;20609;-66
2022/01/07 07:25:43;;;;;;;66.90;10.30;;;;;;;2.94;100.00;98187.44;5131154;28;20630;-64
2022/01/07 07:28:10;;;;;;;65.57;11.03;;;;;;;2.21;100.00;98195.66;5131247;28;20603;-65
2022/01/07 07:30:40;;;;;;;57.83;10.27;;;;;;;2.13;100.00;98192.25;5130963;28;20615;-65
2022/01/07 07:33:29;;;;;;;65.37;11.37;;;;;;;2.22;100.00;98181.50;5130273;28;20603;-65
2022/01/07 07:38:44;;;;;;;104.13;13.60;;;;;;;1.91;100.00;98182.91;5122716;28;20594;-65
2022/01/07 07:41:11;;;;;;;56.57;12.30;;;;;;;1.71;100.00;98179.41;5131155;28;20599;-65
2022/01/07 07:43:38;;;;;;;69.80;13.33;;;;;;;1.52;100.00;98180.16;5130970;28;20599;-64
2022/01/07 07:46:06;;;;;;;63.27;10.50;;;;;;;1.57;100.00;98185.66;5130987;28;20611;-64
2022/01/07 07:48:34;;;;;;;51.27;12.17;;;;;;;1.47;100.00;98180.78;5130659;28;20653;-65
2022/01/07 07:51:01;;;;;;;56.27;11.97;;;;;;;1.27;100.00;98182.53;5130939;28;20899;-64
2022/01/07 07:53:27;;;;;;;89.60;12.73;;;;;;;1.55;100.00;98185.03;5126416;27;20601;-65
2022/01/07 07:55:54;;;;;;;42.93;9.20;;;;;;;1.08;100.00;98196.44;5130646;28;20599;-64
2022/01/07 07:58:21;;;;;;;29.53;9.43;;;;;;;1.01;100.00;98180.63;5130519;28;20599;-64
2022/01/07 08:00:49;;;;;;;79.70;11.50;;;;;;;1.33;100.00;98180.94;5130634;28;20611;-65
2022/01/07 08:03:17;;;;;;;44.33;10.63;;;;;;;1.35;100.00;98179.75;5130681;28;20629;-66
2022/01/07 08:05:44;;;;;;;57.63;9.87;;;;;;;0.91;100.00;98177.53;5113747;28;20603;-65
2022/01/07 08:08:10;;;;;;;51.77;10.77;;;;;;;0.68;100.00;98171.75;5130617;28;20606;-65
2022/01/07 08:10:44;;;;;;;96.93;13.70;;;;;;;1.17;100.00;98165.50;5130317;28;21191;-64
2022/01/07 08:13:30;;;;;;;66.43;11.67;;;;;;;1.04;100.00;98172.34;5130610;28;20592;-65
2022/01/07 08:16:01;;;;;;;44.97;9.40;;;;;;;1.41;100.00;98167.59;5123973;28;20594;-64
2022/01/07 08:18:31;;;;;;;53.23;11.30;;;;;;;1.55;100.00;98169.25;5130215;28;20660;-65
2022/01/07 08:21:00;;;;;;;129.03;13.90;;;;;;;1.75;100.00;98185.91;5130465;28;20595;-64
2022/01/07 08:23:27;;;;;;;42.07;9.67;;;;;;;1.78;100.00;98180.25;5126065;27;20619;-65
2022/01/07 08:25:54;;;;;;;29.87;8.30;;;;;;;1.59;100.00;98175.75;5130212;28;20623;-65
2022/01/07 08:28:26;;;;;;;58.70;10.47;;;;;;;1.08;100.00;98172.75;5130130;28;20596;-65
2022/01/07 08:31:01;;;;;;;65.60;9.67;;;;;;;0.89;100.00;98173.47;5129924;28;20650;-64
2022/01/07 08:36:14;;;;;;;38.97;9.50;;;;;;;0.90;100.00;98160.13;5130323;28;20606;-64
2022/01/07 08:38:41;;;;;;;40.63;8.73;;;;;;;1.11;100.00;98161.84;5129854;28;20610;-65
2022/01/07 08:41:08;;;;;;;44.33;8.60;;;;;;;0.82;100.00;98162.13;5130303;28;20588;-65
2022/01/07 08:43:34;;;;;;;67.83;12.53;;;;;;;1.04;100.00;98151.31;5129630;28;20607;-65
2022/01/07 08:46:01;;;;;;;50.73;9.57;;;;;;;1.00;100.00;98155.31;5130263;28;20607;-64
2022/01/07 08:48:30;;;;;;;62.20;11.23;;;;;;;1.12;100.00;98158.19;5129758;28;20695;-65
2022/01/07 08:50:56;;;;;;;88.63;11.00;;;;;;;1.02;100.00;98152.50;5129901;28;20612;-64
2022/01/07 08:53:23;;;;;;;44.13;9.13;;;;;;;1.24;100.00;98146.09;5125691;28;20739;-65
2022/01/07 08:55:50;;;;;;;68.33;11.70;;;;;;;1.34;100.00;98154.44;5130033;28;20633;-65
2022/01/07 08:58:17;;;;;;;48.63;10.30;;;;;;;1.64;100.00;98144.34;5129827;28;20603;-65
2022/01/07 09:00:44;;;;;;;84.37;12.83;;;;;;;1.63;100.00;98151.47;5113031;28;20625;-64
2022/01/07 09:03:10;;;;;;;68.30;9.77;;;;;;;1.99;100.00;98148.44;5129707;28;20635;-64
2022/01/07 09:05:38;;;;;;;121.93;14.07;;;;;;;2.15;100.00;98155.13;5129409;28;20588;-65
2022/01/07 09:08:07;;;;;;;33.60;7.73;;;;;;;2.48;100.00;98144.56;5129754;28;20611;-65
2022/01/07 09:10:33;;;;;;;53.83;9.87;;;;;;;2.72;100.00;98139.41;5129564;28;20603;-64
2022/01/07 09:13:00;;;;;;;58.97;9.40;;;;;;;2.26;100.00;98143.19;5129702;28;20611;-65
2022/01/07 09:15:26;;;;;;;58.20;9.20;;;;;;;1.99;100.00;98145.00;5129198;28;20615;-64
2022/01/07 09:17:53;;;;;;;58.10;9.70;;;;;;;1.42;100.00;98142.94;5129574;28;20603;-64
2022/01/07 09:20:21;;;;;;;50.30;9.00;;;;;;;1.36;100.00;98144.50;5129570;28;20637;-64
2022/01/07 09:22:50;;;;;;;124.47;13.00;;;;;;;1.36;100.00;98149.75;5129692;28;21236;-64
2022/01/07 09:25:17;;;;;;;41.50;8.03;;;;;;;1.75;100.00;98159.56;5125548;28;20611;-65
2022/01/07 09:27:44;;;;;;;75.30;10.60;;;;;;;1.55;100.00;98156.09;5120913;28;20608;-65
2022/01/07 09:30:12;;;;;;;57.60;10.17;;;;;;;1.38;100.00;98141.69;5129027;28;20612;-64
2022/01/07 09:32:38;;;;;;;47.33;9.43;;;;;;;1.49;100.00;98127.94;5129138;28;20592;-65
2022/01/07 09:35:06;;;;;;;42.27;8.30;;;;;;;1.27;100.00;98131.75;5129531;28;20607;-63
2022/01/07 09:37:35;;;;;;;68.00;9.17;;;;;;;1.35;100.00;98128.94;5129021;28;20596;-64
2022/01/07 09:40:04;;;;;;;74.83;10.00;;;;;;;1.43;100.00;98121.66;5129326;28;20672;-64
2022/01/07 09:42:30;;;;;;;79.13;11.07;;;;;;;1.48;100.00;98127.16;5129125;28;20669;-64
2022/01/07 09:44:58;;;;;;;59.77;8.60;;;;;;;1.67;100.00;98120.28;5129495;28;20713;-65
2022/01/07 09:47:27;;;;;;;76.40;9.77;;;;;;;1.81;100.00;98121.09;5128722;28;20596;-65
2022/01/07 09:49:53;;;;;;;40.37;7.43;;;;;;;1.71;100.00;98125.94;5129251;28;20596;-64
2022/01/07 09:52:20;;;;;;;44.93;7.83;;;;;;;1.40;100.00;98121.25;5131140;28;20600;-64
2022/01/07 09:54:48;;;;;;;92.73;11.00;;;;;;;1.30;100.00;98118.22;5122867;28;20604;-65
2022/01/07 09:57:17;;;;;;;92.43;10.70;;;;;;;1.19;100.00;98121.41;5132829;28;20621;-64
2022/01/07 09:59:52;;;;;;;51.93;8.83;;;;;;;1.26;100.00;98122.22;5133069;28;20599;-63
2022/01/07 10:02:18;;;;;;;69.60;8.67;;;;;;;1.05;100.00;98116.09;5132517;28;20646;-64
2022/01/07 10:04:45;;;;;;;80.37;10.43;;;;;;;1.14;100.00;98114.13;5116170;28;20591;-63
2022/01/07 10:07:16;;;;;;;35.70;8.67;;;;;;;1.39;100.00;98111.75;5132907;28;20591;-65
2022/01/07 10:09:58;;;;;;;78.47;10.23;;;;;;;1.61;100.00;98106.09;5132727;28;20596;-64
2022/01/07 10:12:27;;;;;;;50.50;8.20;;;;;;;1.35;100.00;98110.50;5132610;28;20596;-64
2022/01/07 10:15:09;;;;;;;65.20;9.00;;;;;;;2.00;100.00;98112.38;5132610;28;20604;-63
2022/01/07 10:17:36;;;;;;;50.80;7.60;;;;;;;1.67;100.00;98114.22;5132615;28;20595;-63
2022/01/07 10:20:04;;;;;;;38.80;6.90;;;;;;;1.65;100.00;98106.50;5132753;28;20600;-64
2022/01/07 10:22:49;;;;;;;42.50;9.03;;;;;;;1.51;100.00;98097.00;5134555;27;20634;-64
2022/01/07 10:25:21;;;;;;;27.70;6.40;;;;;;;1.71;100.00;98099.63;5124188;28;20604;-64
2022/01/07 10:27:49;;;;;;;46.90;9.30;;;;;;;2.19;100.00;98101.03;5116030;28;20596;-64
2022/01/07 10:30:18;;;;;;;38.07;9.20;;;;;;;2.01;100.00;98106.91;5132346;28;21150;-64
2022/01/07 10:32:46;;;;;;;99.60;10.93;;;;;;;2.29;100.00;98092.72;5115565;28;20595;-64
2022/01/07 10:35:15;;;;;;;132.00;11.20;;;;;;;1.96;100.00;98085.66;5132417;28;20614;-64
2022/01/07 10:37:51;;;;;;;59.23;9.67;;;;;;;1.96;100.00;98079.56;5132311;28;21125;-64
2022/01/07 10:40:27;;;;;;;65.60;8.53;;;;;;;1.87;100.00;98083.41;5132216;28;20599;-64
2022/01/07 10:42:56;;;;;;;55.10;7.83;;;;;;;1.89;100.00;98076.16;5124848;28;20646;-63
2022/01/07 10:45:23;;;;;;;120.40;11.00;;;;;;;1.76;100.00;98081.41;5131832;28;20583;-63
2022/01/07 10:47:52;;;;;;;37.07;7.23;;;;;;;1.72;100.00;98083.63;5130483;28;20608;-64
2022/01/07 10:50:21;;;;;;;52.53;6.93;;;;;;;1.94;100.00;98082.41;5123396;28;20595;-64
2022/01/07 10:52:47;;;;;;;47.07;7.93;;;;;;;1.96;100.00;98077.75;5124321;27;20599;-64
2022/01/07 10:55:18;;;;;;;52.37;8.90;;;;;;;1.96;100.00;98082.19;5127703;28;20596;-63
2022/01/07 10:57:46;;;;;;;82.50;8.70;;;;;;;1.92;100.00;98068.63;5115093;28;20717;-64
2022/01/07 11:00:17;;;;;;;27.83;7.60;;;;;;;2.26;100.00;98072.81;5131832;28;20607;-63
2022/01/07 11:02:44;;;;;;;46.20;7.10;;;;;;;1.70;100.00;98069.88;5131796;28;20666;-64
2022/01/07 11:05:11;;;;;;;54.07;8.20;;;;;;;1.64;100.00;98060.13;5131771;28;20604;-64
2022/01/07 11:07:38;;;;;;;60.90;9.37;;;;;;;1.64;100.00;98058.31;5131629;28;20587;-63
2022/01/07 11:10:06;;;;;;;36.13;7.60;;;;;;;2.22;100.00;98047.94;5131593;28;20607;-63
2022/01/07 11:12:34;;;;;;;50.53;8.80;;;;;;;2.15;100.00;98055.84;5131504;28;20612;-63
2022/01/07 11:15:02;;;;;;;40.37;6.73;;;;;;;2.44;100.00;98053.75;5131560;28;20621;-63
2022/01/07 11:17:31;;;;;;;18.27;5.63;;;;;;;2.27;100.00;98053.38;5131399;28;20608;-64
2022/01/07 11:20:01;;;;;;;114.67;10.80;;;;;;;2.42;100.00;98046.03;5131306;28;20618;-64
2022/01/07 11:22:28;;;;;;;41.00;8.40;;;;;;;2.60;100.00;98040.88;5133364;27;20642;-64
2022/01/07 11:25:06;;;;;;;54.60;8.50;;;;;;;2.63;100.00;98040.47;5124929;28;20584;-65
2022/01/07 11:27:46;;;;;;;107.70;11.23;;;;;;;2.99;100.00;98036.47;5130917;28;20642;-64
2022/01/07 11:30:15;;;;;;;23.73;7.07;;;;;;;3.13;100.00;98033.53;5131087;28;20603;-64